createdAt,value
2019-01-26T00:00:02.642Z,5.04
2019-01-26T00:01:07.596Z,5.07
2019-01-26T00:02:12.260Z,5.02
2019-01-26T00:03:15.547Z,4.91
2019-01-26T00:04:18.824Z,4.93
2019-01-26T00:05:22.171Z,4.96
2019-01-26T00:06:25.555Z,4.95
2019-01-26T00:07:28.845Z,4.90
2019-01-26T00:08:32.200Z,4.79
2019-01-26T00:09:35.502Z,4.78
2019-01-26T00:10:38.773Z,4.86
2019-01-26T00:11:42.105Z,4.93
2019-01-26T00:12:45.400Z,4.99
2019-01-26T00:13:48.685Z,5.05
2019-01-26T00:14:51.967Z,5.13
2019-01-26T00:15:55.250Z,5.16
2019-01-26T00:16:58.569Z,5.00
2019-01-26T00:18:01.885Z,4.87
2019-01-26T00:19:05.170Z,4.81
2019-01-26T00:20:09.512Z,4.75
2019-01-26T00:21:12.797Z,4.73
2019-01-26T00:22:16.127Z,4.75
2019-01-26T00:23:19.417Z,4.70
2019-01-26T00:24:22.705Z,4.72
2019-01-26T00:25:25.991Z,4.82
2019-01-26T00:26:29.272Z,4.86
2019-01-26T00:27:32.592Z,4.93
2019-01-26T00:28:35.884Z,4.93
2019-01-26T00:29:39.229Z,4.97
2019-01-26T00:30:42.514Z,4.96
2019-01-26T00:31:45.808Z,4.93
2019-01-26T00:32:49.195Z,4.84
2019-01-26T00:33:52.477Z,4.82
2019-01-26T00:34:55.766Z,4.70
2019-01-26T00:35:59.061Z,4.61
2019-01-26T00:37:02.344Z,4.60
2019-01-26T00:38:05.657Z,4.56
2019-01-26T00:39:09.002Z,4.59
2019-01-26T00:40:12.755Z,4.55
2019-01-26T00:41:16.045Z,4.55
2019-01-26T00:42:19.316Z,4.59
2019-01-26T00:43:22.637Z,4.56
2019-01-26T00:44:26.017Z,4.50
2019-01-26T00:45:29.313Z,4.53
2019-01-26T00:46:32.912Z,4.44
2019-01-26T00:47:36.275Z,4.43
2019-01-26T00:48:39.590Z,4.38
2019-01-26T00:49:42.881Z,4.31
2019-01-26T00:50:46.162Z,4.27
2019-01-26T00:51:49.444Z,4.17
2019-01-26T00:52:52.794Z,4.19
2019-01-26T00:53:56.412Z,4.23
2019-01-26T00:54:59.687Z,4.28
2019-01-26T00:56:03.046Z,4.28
2019-01-26T00:57:06.324Z,4.31
2019-01-26T00:58:09.676Z,4.32
2019-01-26T00:59:12.992Z,4.31
2019-01-26T01:00:21.213Z,4.24
2019-01-26T01:01:24.770Z,4.25
2019-01-26T01:02:28.182Z,4.20
2019-01-26T01:03:31.536Z,4.24
2019-01-26T01:04:34.879Z,4.33
2019-01-26T01:05:38.242Z,4.33
2019-01-26T01:06:41.522Z,4.28
2019-01-26T01:07:44.878Z,4.31
2019-01-26T01:08:48.168Z,4.29
2019-01-26T01:09:51.501Z,4.35
2019-01-26T01:10:54.783Z,4.42
2019-01-26T01:11:58.066Z,4.44
2019-01-26T01:13:01.428Z,4.28
2019-01-26T01:14:04.706Z,4.28
2019-01-26T01:15:14.367Z,4.30
2019-01-26T01:16:17.958Z,4.24
2019-01-26T01:17:21.651Z,4.22
2019-01-26T01:18:24.978Z,4.11
2019-01-26T01:19:28.262Z,4.16
2019-01-26T01:20:31.551Z,4.14
2019-01-26T01:21:34.910Z,4.18
2019-01-26T01:22:38.189Z,4.16
2019-01-26T01:23:41.539Z,4.20
2019-01-26T01:24:44.925Z,4.24
2019-01-26T01:25:48.236Z,4.18
2019-01-26T01:26:51.521Z,4.22
2019-01-26T01:27:55.115Z,4.22
2019-01-26T01:28:58.691Z,4.21
2019-01-26T01:30:01.978Z,4.21
2019-01-26T01:31:05.299Z,4.15
2019-01-26T01:32:08.591Z,4.10
2019-01-26T01:33:13.195Z,4.06
2019-01-26T01:34:16.697Z,4.06
2019-01-26T01:35:19.971Z,4.03
2019-01-26T01:36:23.320Z,4.01
2019-01-26T01:37:26.559Z,4.04
2019-01-26T01:38:29.836Z,3.99
2019-01-26T01:39:33.285Z,3.89
2019-01-26T01:40:36.664Z,3.88
2019-01-26T01:41:39.964Z,3.81
2019-01-26T01:42:43.251Z,3.83
2019-01-26T01:43:46.533Z,3.87
2019-01-26T01:44:49.828Z,3.86
2019-01-26T01:45:53.113Z,3.86
2019-01-26T01:46:56.502Z,3.78
2019-01-26T01:47:59.782Z,3.75
2019-01-26T01:49:03.104Z,3.70
2019-01-26T01:50:08.321Z,3.69
2019-01-26T01:51:11.602Z,3.72
2019-01-26T01:52:15.271Z,3.67
2019-01-26T01:53:18.550Z,3.61
2019-01-26T01:54:22.210Z,3.60
2019-01-26T01:55:25.485Z,3.59
2019-01-26T01:56:28.830Z,3.61
2019-01-26T01:57:32.141Z,3.58
2019-01-26T01:58:35.424Z,3.53
2019-01-26T01:59:38.706Z,3.60
2019-01-26T02:00:41.991Z,3.67
2019-01-26T02:01:45.283Z,3.71
2019-01-26T02:02:48.602Z,3.77
2019-01-26T02:03:51.890Z,3.76
2019-01-26T02:04:55.191Z,3.66
2019-01-26T02:05:58.474Z,3.64
2019-01-26T02:07:01.757Z,3.60
2019-01-26T02:08:05.077Z,3.62
2019-01-26T02:09:08.931Z,3.57
2019-01-26T02:10:14.750Z,3.49
2019-01-26T02:11:18.036Z,3.49
2019-01-26T02:12:21.313Z,3.44
2019-01-26T02:13:24.620Z,3.45
2019-01-26T02:14:27.890Z,3.48
2019-01-26T02:15:31.237Z,3.50
2019-01-26T02:16:34.509Z,3.38
2019-01-26T02:17:37.787Z,3.35
2019-01-26T02:18:41.108Z,3.36
2019-01-26T02:19:44.391Z,3.37
2019-01-26T02:20:47.671Z,3.34
2019-01-26T02:21:51.021Z,3.28
2019-01-26T02:22:54.298Z,3.30
2019-01-26T02:23:57.625Z,3.36
2019-01-26T02:25:00.910Z,3.38
2019-01-26T02:26:04.229Z,3.43
2019-01-26T02:27:07.474Z,3.36
2019-01-26T02:28:10.760Z,3.28
2019-01-26T02:29:14.453Z,3.30
2019-01-26T02:30:20.374Z,3.23
2019-01-26T02:31:23.642Z,3.18
2019-01-26T02:32:26.922Z,3.16
2019-01-26T02:33:30.231Z,3.12
2019-01-26T02:34:33.545Z,3.15
2019-01-26T02:35:36.824Z,3.16
2019-01-26T02:36:40.179Z,3.06
2019-01-26T02:37:43.461Z,3.03
2019-01-26T02:38:46.732Z,3.00
2019-01-26T02:39:50.044Z,3.04
2019-01-26T02:40:53.319Z,2.97
2019-01-26T02:41:56.706Z,2.98
2019-01-26T02:42:59.984Z,2.98
2019-01-26T02:44:03.639Z,3.02
2019-01-26T02:45:08.564Z,3.00
2019-01-26T02:46:11.848Z,3.07
2019-01-26T02:47:15.132Z,3.05
2019-01-26T02:48:18.417Z,3.01
2019-01-26T02:49:22.109Z,2.98
2019-01-26T02:50:25.435Z,2.98
2019-01-26T02:51:28.786Z,2.93
2019-01-26T02:52:32.140Z,2.96
2019-01-26T02:53:35.416Z,2.96
2019-01-26T02:54:38.700Z,2.97
2019-01-26T02:55:42.011Z,2.94
2019-01-26T02:56:45.296Z,2.92
2019-01-26T02:57:48.949Z,2.88
2019-01-26T02:58:52.231Z,2.88
2019-01-26T02:59:55.521Z,2.89
2019-01-26T03:00:59.213Z,2.84
2019-01-26T03:02:02.557Z,2.89
2019-01-26T03:03:05.844Z,2.94
2019-01-26T03:04:09.128Z,2.94
2019-01-26T03:05:12.750Z,2.99
2019-01-26T03:06:16.459Z,2.95
2019-01-26T03:07:19.810Z,2.91
2019-01-26T03:08:23.076Z,2.95
2019-01-26T03:09:26.480Z,2.95
2019-01-26T03:10:29.758Z,2.95
2019-01-26T03:11:33.066Z,2.99
2019-01-26T03:12:36.492Z,2.95
2019-01-26T03:13:39.768Z,2.98
2019-01-26T03:14:43.070Z,2.97
2019-01-26T03:15:46.337Z,3.02
2019-01-26T03:16:49.644Z,2.92
2019-01-26T03:17:52.923Z,2.85
2019-01-26T03:18:56.195Z,2.93
2019-01-26T03:19:59.478Z,2.92
2019-01-26T03:21:02.758Z,2.89
2019-01-26T03:22:06.074Z,2.86
2019-01-26T03:23:09.346Z,2.91
2019-01-26T03:24:12.626Z,2.95
2019-01-26T03:25:16.381Z,2.88
2019-01-26T03:26:19.654Z,2.85
2019-01-26T03:27:22.973Z,2.80
2019-01-26T03:28:26.317Z,2.87
2019-01-26T03:29:29.604Z,2.84
2019-01-26T03:30:32.888Z,2.85
2019-01-26T03:31:36.220Z,2.81
2019-01-26T03:32:39.498Z,2.79
2019-01-26T03:33:42.770Z,2.80
2019-01-26T03:34:46.037Z,2.83
2019-01-26T03:35:49.404Z,2.87
2019-01-26T03:36:52.734Z,2.84
2019-01-26T03:37:56.067Z,2.83
2019-01-26T03:38:59.352Z,2.88
2019-01-26T03:40:02.616Z,2.89
2019-01-26T03:41:05.996Z,2.89
2019-01-26T03:42:09.627Z,2.85
2019-01-26T03:43:12.945Z,2.84
2019-01-26T03:44:16.223Z,2.83
2019-01-26T03:45:19.567Z,2.79
2019-01-26T03:46:23.204Z,2.74
2019-01-26T03:47:26.628Z,2.67
2019-01-26T03:48:30.021Z,2.74
2019-01-26T03:49:33.298Z,2.77
2019-01-26T03:50:36.570Z,2.70
2019-01-26T03:51:39.859Z,2.71
2019-01-26T03:52:43.142Z,2.68
2019-01-26T03:53:46.433Z,2.72
2019-01-26T03:54:49.714Z,2.75
2019-01-26T03:55:52.999Z,2.71
2019-01-26T03:56:56.279Z,2.78
2019-01-26T03:57:59.580Z,2.81
2019-01-26T03:59:02.959Z,2.79
2019-01-26T04:00:24.089Z,2.71
2019-01-26T04:01:27.377Z,2.68
2019-01-26T04:02:30.652Z,2.74
2019-01-26T04:03:33.930Z,2.76
2019-01-26T04:04:37.252Z,2.77
2019-01-26T04:05:40.533Z,2.80
2019-01-26T04:06:43.815Z,2.72
2019-01-26T04:07:47.091Z,2.65
2019-01-26T04:08:50.381Z,2.58
2019-01-26T04:09:53.714Z,2.51
2019-01-26T04:10:57.000Z,2.51
2019-01-26T04:12:00.290Z,2.56
2019-01-26T04:13:03.894Z,2.65
2019-01-26T04:14:07.174Z,2.65
2019-01-26T04:15:20.283Z,2.62
2019-01-26T04:16:23.576Z,2.65
2019-01-26T04:17:26.949Z,2.68
2019-01-26T04:18:30.234Z,2.70
2019-01-26T04:19:33.495Z,2.67
2019-01-26T04:20:36.821Z,2.65
2019-01-26T04:21:40.102Z,2.57
2019-01-26T04:22:43.384Z,2.56
2019-01-26T04:23:46.671Z,2.47
2019-01-26T04:24:49.947Z,2.43
2019-01-26T04:25:53.238Z,2.42
2019-01-26T04:26:56.541Z,2.50
2019-01-26T04:27:59.810Z,2.58
2019-01-26T04:29:03.164Z,2.67
2019-01-26T04:30:09.975Z,2.65
2019-01-26T04:31:13.314Z,2.59
2019-01-26T04:32:16.601Z,2.48
2019-01-26T04:33:19.884Z,2.43
2019-01-26T04:34:23.234Z,2.39
2019-01-26T04:35:26.518Z,2.43
2019-01-26T04:36:29.842Z,2.38
2019-01-26T04:37:33.123Z,2.35
2019-01-26T04:38:36.403Z,2.45
2019-01-26T04:39:39.692Z,2.44
2019-01-26T04:40:42.970Z,2.46
2019-01-26T04:41:46.282Z,2.45
2019-01-26T04:42:52.648Z,2.44
2019-01-26T04:43:56.227Z,2.41
2019-01-26T04:45:00.000Z,2.34
2019-01-26T04:46:03.236Z,2.29
2019-01-26T04:47:06.622Z,2.32
2019-01-26T04:48:09.906Z,2.36
2019-01-26T04:49:13.192Z,2.43
2019-01-26T04:50:18.085Z,2.46
2019-01-26T04:51:21.762Z,2.39
2019-01-26T04:52:25.077Z,2.39
2019-01-26T04:53:28.356Z,2.40
2019-01-26T04:54:31.638Z,2.33
2019-01-26T04:55:34.921Z,2.40
2019-01-26T04:56:38.206Z,2.39
2019-01-26T04:57:41.530Z,2.40
2019-01-26T04:58:44.803Z,2.39
2019-01-26T04:59:48.091Z,2.43
2019-01-26T05:00:51.363Z,2.46
2019-01-26T05:01:54.645Z,2.42
2019-01-26T05:02:57.950Z,2.39
2019-01-26T05:04:01.230Z,2.41
2019-01-26T05:05:04.784Z,2.33
2019-01-26T05:06:08.099Z,2.44
2019-01-26T05:07:11.372Z,2.38
2019-01-26T05:08:14.796Z,2.37
2019-01-26T05:09:18.075Z,2.42
2019-01-26T05:10:22.386Z,2.45
2019-01-26T05:11:25.638Z,2.53
2019-01-26T05:12:28.914Z,2.45
2019-01-26T05:13:32.240Z,2.43
2019-01-26T05:14:35.991Z,2.30
2019-01-26T05:15:39.316Z,2.25
2019-01-26T05:16:42.929Z,2.28
2019-01-26T05:17:46.204Z,2.33
2019-01-26T05:18:49.507Z,2.26
2019-01-26T05:19:52.852Z,2.21
2019-01-26T05:20:56.134Z,2.23
2019-01-26T05:21:59.418Z,2.30
2019-01-26T05:23:02.699Z,2.34
2019-01-26T05:24:06.036Z,2.28
2019-01-26T05:25:09.319Z,2.25
2019-01-26T05:26:12.563Z,2.23
2019-01-26T05:27:16.209Z,2.14
2019-01-26T05:28:19.628Z,2.13
2019-01-26T05:29:22.941Z,2.19
2019-01-26T05:30:27.365Z,2.15
2019-01-26T05:31:30.987Z,2.19
2019-01-26T05:32:34.270Z,2.17
2019-01-26T05:33:37.554Z,2.19
2019-01-26T05:34:40.857Z,2.18
2019-01-26T05:35:44.141Z,2.23
2019-01-26T05:36:47.423Z,2.25
2019-01-26T05:37:50.714Z,2.17
2019-01-26T05:38:53.991Z,2.20
2019-01-26T05:39:57.299Z,2.24
2019-01-26T05:41:00.575Z,2.20
2019-01-26T05:42:03.861Z,2.15
2019-01-26T05:43:07.248Z,2.18
2019-01-26T05:44:10.526Z,2.20
2019-01-26T05:45:16.442Z,2.14
2019-01-26T05:46:19.737Z,2.11
2019-01-26T05:47:23.112Z,2.13
2019-01-26T05:48:26.398Z,2.07
2019-01-26T05:49:29.745Z,2.01
2019-01-26T05:50:33.063Z,2.03
2019-01-26T05:51:36.382Z,2.11
2019-01-26T05:52:39.654Z,2.09
2019-01-26T05:53:42.934Z,2.00
2019-01-26T05:54:46.230Z,1.94
2019-01-26T05:55:49.949Z,1.91
2019-01-26T05:56:53.234Z,2.02
2019-01-26T05:57:56.524Z,1.94
2019-01-26T05:58:59.813Z,1.97
2019-01-26T06:00:03.524Z,1.97
2019-01-26T06:01:06.838Z,1.95
2019-01-26T06:02:10.123Z,2.02
2019-01-26T06:03:13.401Z,2.04
2019-01-26T06:04:16.685Z,2.05
2019-01-26T06:05:19.964Z,2.06
2019-01-26T06:06:23.275Z,2.01
2019-01-26T06:07:26.558Z,2.03
2019-01-26T06:08:29.906Z,2.04
2019-01-26T06:09:33.176Z,1.96
2019-01-26T06:10:36.455Z,1.96
2019-01-26T06:11:39.767Z,1.96
2019-01-26T06:12:43.075Z,1.99
2019-01-26T06:13:46.362Z,2.00
2019-01-26T06:14:49.709Z,2.00
2019-01-26T06:15:52.993Z,2.06
2019-01-26T06:16:56.302Z,2.14
2019-01-26T06:17:59.574Z,2.24
2019-01-26T06:19:03.207Z,2.27
2019-01-26T06:20:09.803Z,2.27
2019-01-26T06:21:13.090Z,2.32
2019-01-26T06:22:16.486Z,2.17
2019-01-26T06:23:21.867Z,2.07
2019-01-26T06:24:25.153Z,2.11
2019-01-26T06:25:28.431Z,2.12
2019-01-26T06:26:31.724Z,2.21
2019-01-26T06:27:35.037Z,2.26
2019-01-26T06:28:38.312Z,2.25
2019-01-26T06:29:41.661Z,2.25
2019-01-26T06:30:44.951Z,2.14
2019-01-26T06:31:48.228Z,2.04
2019-01-26T06:32:51.659Z,2.07
2019-01-26T06:35:47.583Z,1.99
2019-01-26T06:36:59.101Z,2.00
2019-01-26T06:38:14.434Z,1.90
2019-01-26T06:39:32.024Z,1.81
2019-01-26T06:40:35.370Z,1.80
2019-01-26T06:41:38.665Z,1.83
2019-01-26T06:42:41.938Z,1.88
2019-01-26T06:43:45.337Z,1.79
2019-01-26T06:44:48.622Z,1.69
2019-01-26T06:45:51.908Z,1.70
2019-01-26T06:46:55.257Z,1.71
2019-01-26T06:48:02.180Z,1.72
2019-01-26T06:49:04.337Z,1.74
2019-01-26T06:50:10.941Z,1.67
2019-01-26T06:51:14.349Z,1.68
2019-01-26T06:52:17.694Z,1.72
2019-01-26T06:53:20.973Z,1.71
2019-01-26T06:54:24.292Z,1.71
2019-01-26T06:55:27.568Z,1.70
2019-01-26T06:56:30.848Z,1.71
2019-01-26T06:57:34.211Z,1.77
2019-01-26T06:58:37.890Z,1.79
2019-01-26T06:59:41.182Z,1.78
2019-01-26T07:00:44.466Z,1.73
2019-01-26T07:01:47.752Z,1.76
2019-01-26T07:02:51.143Z,1.83
2019-01-26T07:03:54.428Z,1.81
2019-01-26T07:04:59.740Z,1.78
2019-01-26T07:06:04.662Z,1.85
2019-01-26T07:07:10.849Z,1.93
2019-01-26T07:08:16.886Z,1.95
2019-01-26T07:09:20.170Z,1.90
2019-01-26T07:10:23.426Z,1.87
2019-01-26T07:11:26.709Z,1.85
2019-01-26T07:12:30.130Z,1.84
2019-01-26T07:13:33.450Z,1.85
2019-01-26T07:14:36.774Z,1.84
2019-01-26T07:15:40.014Z,1.91
2019-01-26T07:16:43.358Z,1.92
2019-01-26T07:17:56.273Z,1.94
2019-01-26T07:18:59.705Z,1.91
2019-01-26T07:20:03.450Z,1.94
2019-01-26T07:21:06.817Z,1.98
2019-01-26T07:22:10.163Z,2.03
2019-01-26T07:23:13.447Z,2.01
2019-01-26T07:24:16.760Z,1.95
2019-01-26T07:25:20.035Z,2.02
2019-01-26T07:26:23.309Z,2.07
2019-01-26T07:27:26.582Z,2.05
2019-01-26T07:28:29.932Z,2.06
2019-01-26T07:29:33.322Z,2.01
2019-01-26T07:30:36.683Z,1.99
2019-01-26T07:31:39.946Z,1.96
2019-01-26T07:32:43.534Z,1.96
2019-01-26T07:33:47.117Z,2.02
2019-01-26T07:34:50.423Z,1.94
2019-01-26T07:35:53.707Z,1.98
2019-01-26T07:36:57.011Z,2.00
2019-01-26T07:38:00.379Z,2.04
2019-01-26T07:39:05.457Z,2.01
2019-01-26T07:40:12.108Z,1.95
2019-01-26T07:41:15.392Z,1.87
2019-01-26T07:42:18.745Z,1.90
2019-01-26T07:43:22.014Z,1.88
2019-01-26T07:44:25.362Z,1.94
2019-01-26T07:45:28.689Z,1.94
2019-01-26T07:46:31.971Z,2.01
2019-01-26T07:47:35.267Z,2.00
2019-01-26T07:48:38.943Z,2.01
2019-01-26T07:49:42.349Z,2.04
2019-01-26T07:50:46.046Z,2.17
2019-01-26T07:51:49.339Z,2.19
2019-01-26T07:52:53.028Z,2.22
2019-01-26T07:53:56.628Z,2.22
2019-01-26T07:55:00.052Z,2.20
2019-01-26T07:56:03.360Z,2.27
2019-01-26T07:57:06.651Z,2.28
2019-01-26T07:58:10.002Z,2.21
2019-01-26T07:59:13.294Z,2.33
2019-01-26T08:00:19.488Z,2.41
2019-01-26T08:01:22.808Z,2.47
2019-01-26T08:02:26.097Z,2.43
2019-01-26T08:03:29.369Z,2.41
2019-01-26T08:04:32.715Z,2.45
2019-01-26T08:05:35.997Z,2.48
2019-01-26T08:06:39.670Z,2.45
2019-01-26T08:07:42.984Z,2.37
2019-01-26T08:08:46.267Z,2.42
2019-01-26T08:09:49.929Z,2.49
2019-01-26T08:10:53.210Z,2.48
2019-01-26T08:11:56.537Z,2.38
2019-01-26T08:12:59.823Z,2.40
2019-01-26T08:14:03.110Z,2.41
2019-01-26T08:15:12.473Z,2.41
2019-01-26T08:16:15.753Z,2.45
2019-01-26T08:17:19.060Z,2.49
2019-01-26T08:18:24.201Z,2.49
2019-01-26T08:19:27.385Z,2.45
2019-01-26T08:20:30.722Z,2.39
2019-01-26T08:21:34.079Z,2.46
2019-01-26T08:22:37.408Z,2.46
2019-01-26T08:23:41.014Z,2.37
2019-01-26T08:24:44.711Z,2.40
2019-01-26T08:25:48.062Z,2.31
2019-01-26T08:26:51.353Z,2.29
2019-01-26T08:27:54.675Z,2.32
2019-01-26T08:28:59.616Z,2.42
2019-01-26T08:30:03.152Z,2.42
2019-01-26T08:31:06.498Z,2.42
2019-01-26T08:32:09.777Z,2.41
2019-01-26T08:33:13.095Z,2.38
2019-01-26T08:34:16.490Z,2.43
2019-01-26T08:35:19.917Z,2.48
2019-01-26T08:36:23.587Z,2.51
2019-01-26T08:37:26.955Z,2.45
2019-01-26T08:38:30.269Z,2.45
2019-01-26T08:39:33.552Z,2.39
2019-01-26T08:40:36.846Z,2.36
2019-01-26T08:41:40.159Z,2.36
2019-01-26T08:42:43.563Z,2.37
2019-01-26T08:43:46.886Z,2.37
2019-01-26T08:44:50.470Z,2.45
2019-01-26T08:45:53.829Z,2.48
2019-01-26T08:46:57.117Z,2.42
2019-01-26T08:48:00.469Z,2.47
2019-01-26T08:49:03.800Z,2.51
2019-01-26T08:50:12.815Z,2.51
2019-01-26T08:51:16.170Z,2.52
2019-01-26T08:52:19.450Z,2.55
2019-01-26T08:53:22.883Z,2.50
2019-01-26T08:54:26.267Z,2.38
2019-01-26T08:55:29.560Z,2.38
2019-01-26T08:56:32.851Z,2.42
2019-01-26T08:57:36.134Z,2.51
2019-01-26T08:58:39.589Z,2.45
2019-01-26T08:59:42.914Z,2.39
2019-01-26T09:00:46.438Z,2.26
2019-01-26T09:01:51.360Z,2.32
2019-01-26T09:02:56.352Z,2.39
2019-01-26T09:04:03.965Z,2.33
2019-01-26T09:05:07.952Z,2.31
2019-01-26T09:06:12.879Z,2.36
2019-01-26T09:07:16.232Z,2.39
2019-01-26T09:08:19.670Z,2.44
2019-01-26T09:09:23.013Z,2.37
2019-01-26T09:10:26.404Z,2.35
2019-01-26T09:11:29.696Z,2.43
2019-01-26T09:12:32.982Z,2.35
2019-01-26T09:13:36.277Z,2.39
2019-01-26T09:14:39.563Z,2.42
2019-01-26T09:15:42.893Z,2.47
2019-01-26T09:16:46.173Z,2.45
2019-01-26T09:17:49.551Z,2.43
2019-01-26T09:18:52.931Z,2.39
2019-01-26T09:19:56.222Z,2.32
2019-01-26T09:20:59.550Z,2.29
2019-01-26T09:22:02.841Z,2.27
2019-01-26T09:23:06.135Z,2.33
2019-01-26T09:24:09.518Z,2.37
2019-01-26T09:25:13.058Z,2.27
2019-01-26T09:26:16.378Z,2.25
2019-01-26T09:27:19.673Z,2.29
2019-01-26T09:28:23.028Z,2.28
2019-01-26T09:29:26.382Z,2.29
2019-01-26T09:30:29.749Z,2.35
2019-01-26T09:31:33.073Z,2.41
2019-01-26T09:32:36.348Z,2.46
2019-01-26T09:33:39.649Z,2.55
2019-01-26T09:34:46.622Z,2.61
2019-01-26T09:35:50.316Z,2.63
2019-01-26T09:36:53.817Z,2.59
2019-01-26T09:37:57.165Z,2.56
2019-01-26T09:39:00.448Z,2.53
2019-01-26T09:40:06.536Z,2.59
2019-01-26T09:41:09.962Z,2.63
2019-01-26T09:42:13.279Z,2.60
2019-01-26T09:43:16.575Z,2.57
2019-01-26T09:44:20.207Z,2.54
2019-01-26T09:45:23.468Z,2.58
2019-01-26T09:46:26.762Z,2.51
2019-01-26T09:47:30.138Z,2.49
2019-01-26T09:48:33.840Z,2.51
2019-01-26T09:49:37.199Z,2.45
2019-01-26T09:50:40.573Z,2.32
2019-01-26T09:51:43.859Z,2.37
2019-01-26T09:52:47.177Z,2.44
2019-01-26T09:53:50.469Z,2.48
2019-01-26T09:54:57.049Z,2.49
2019-01-26T09:56:00.411Z,2.48
2019-01-26T09:57:03.735Z,2.45
2019-01-26T09:58:07.038Z,2.32
2019-01-26T09:59:10.506Z,2.42
2019-01-26T10:00:25.247Z,2.48
2019-01-26T10:01:28.525Z,2.47
2019-01-26T10:02:31.878Z,2.46
2019-01-26T10:03:35.362Z,2.53
2019-01-26T10:04:38.728Z,2.51
2019-01-26T10:05:42.095Z,2.49
2019-01-26T10:06:45.384Z,2.50
2019-01-26T10:07:49.513Z,2.45
2019-01-26T10:08:52.913Z,2.54
2019-01-26T10:09:56.287Z,2.59
2019-01-26T10:11:00.418Z,2.60
2019-01-26T10:12:03.724Z,2.65
2019-01-26T10:13:07.492Z,2.71
2019-01-26T10:14:10.814Z,2.72
2019-01-26T10:15:25.410Z,2.67
2019-01-26T10:16:28.867Z,2.72
2019-01-26T10:17:32.287Z,2.75
2019-01-26T10:18:35.921Z,2.69
2019-01-26T10:19:39.242Z,2.69
2019-01-26T10:20:43.569Z,2.65
2019-01-26T10:21:46.931Z,2.63
2019-01-26T10:22:50.228Z,2.69
2019-01-26T10:23:53.577Z,2.70
2019-01-26T10:24:56.868Z,2.70
2019-01-26T10:26:00.475Z,2.67
2019-01-26T10:27:03.871Z,2.71
2019-01-26T10:28:07.355Z,2.65
2019-01-26T10:29:10.633Z,2.61
2019-01-26T10:30:21.231Z,2.66
2019-01-26T10:31:24.522Z,2.64
2019-01-26T10:32:27.845Z,2.62
2019-01-26T10:33:31.588Z,2.62
2019-01-26T10:34:34.870Z,2.66
2019-01-26T10:35:42.457Z,2.63
2019-01-26T10:36:47.461Z,2.71
2019-01-26T10:37:50.782Z,2.72
2019-01-26T10:38:55.621Z,2.72
2019-01-26T10:40:00.457Z,2.62
2019-01-26T10:41:05.341Z,2.58
2019-01-26T10:42:10.274Z,2.62
2019-01-26T10:43:15.255Z,2.50
2019-01-26T10:44:20.307Z,2.50
2019-01-26T10:45:23.593Z,2.50
2019-01-26T10:46:27.205Z,2.52
2019-01-26T10:47:31.789Z,2.66
2019-01-26T10:48:35.074Z,2.73
2019-01-26T10:49:38.362Z,2.79
2019-01-26T10:50:41.743Z,2.73
2019-01-26T10:51:45.038Z,2.66
2019-01-26T10:52:48.321Z,2.61
2019-01-26T10:53:51.752Z,2.54
2019-01-26T10:54:55.181Z,2.51
2019-01-26T10:55:58.476Z,2.61
2019-01-26T10:57:03.751Z,2.69
2019-01-26T10:58:07.116Z,2.53
2019-01-26T10:59:10.464Z,2.56
2019-01-26T11:00:20.761Z,2.58
2019-01-26T11:01:24.079Z,2.60
2019-01-26T11:02:27.518Z,2.53
2019-01-26T11:03:30.770Z,2.52
2019-01-26T11:04:34.089Z,2.59
2019-01-26T11:05:37.374Z,2.67
2019-01-26T11:06:40.752Z,2.67
2019-01-26T11:07:44.043Z,2.70
2019-01-26T11:08:47.398Z,2.65
2019-01-26T11:09:51.621Z,2.65
2019-01-26T11:10:55.052Z,2.67
2019-01-26T11:11:58.368Z,2.72
2019-01-26T11:13:01.653Z,2.77
2019-01-26T11:14:04.937Z,2.81
2019-01-26T11:15:10.511Z,2.74
2019-01-26T11:16:13.862Z,2.82
2019-01-26T11:17:17.164Z,2.85
2019-01-26T11:18:20.719Z,2.87
2019-01-26T11:19:24.396Z,2.95
2019-01-26T11:20:27.880Z,2.94
2019-01-26T11:21:31.176Z,2.99
2019-01-26T11:22:34.461Z,3.04
2019-01-26T11:23:37.742Z,2.86
2019-01-26T11:24:41.037Z,2.79
2019-01-26T11:25:44.415Z,2.79
2019-01-26T11:26:49.345Z,2.85
2019-01-26T11:27:53.329Z,2.82
2019-01-26T11:28:58.455Z,2.87
2019-01-26T11:30:02.121Z,2.96
2019-01-26T11:31:05.562Z,3.06
2019-01-26T11:32:08.928Z,2.99
2019-01-26T11:33:12.213Z,2.96
2019-01-26T11:34:15.494Z,2.98
2019-01-26T11:35:21.587Z,3.00
2019-01-26T11:36:24.899Z,2.82
2019-01-26T11:37:28.197Z,2.81
2019-01-26T11:38:31.501Z,2.86
2019-01-26T11:39:34.854Z,3.04
2019-01-26T11:40:38.138Z,2.96
2019-01-26T11:41:41.495Z,2.92
2019-01-26T11:42:44.863Z,2.94
2019-01-26T11:43:48.144Z,2.91
2019-01-26T11:44:58.739Z,2.87
2019-01-26T11:46:03.987Z,2.94
2019-01-26T11:47:07.329Z,2.94
2019-01-26T11:48:18.264Z,2.93
2019-01-26T11:49:21.554Z,2.87
2019-01-26T11:50:26.485Z,2.97
2019-01-26T11:51:31.506Z,3.06
2019-01-26T11:52:34.828Z,3.07
2019-01-26T11:53:38.121Z,3.08
2019-01-26T11:54:43.040Z,3.07
2019-01-26T11:56:04.210Z,3.03
2019-01-26T11:57:09.520Z,2.99
2019-01-26T11:58:12.837Z,3.05
2019-01-26T11:59:17.397Z,3.14
2019-01-26T12:00:38.623Z,3.18
2019-01-26T12:01:52.682Z,3.17
2019-01-26T12:02:57.644Z,3.09
2019-01-26T12:04:02.605Z,2.98
2019-01-26T12:05:07.503Z,2.95
2019-01-26T12:06:12.434Z,3.01
2019-01-26T12:07:15.716Z,3.01
2019-01-26T12:08:19.009Z,2.99
2019-01-26T12:09:22.332Z,3.00
2019-01-26T12:10:25.613Z,2.94
2019-01-26T12:11:28.915Z,2.95
2019-01-26T12:12:32.212Z,2.96
2019-01-26T12:13:35.911Z,3.03
2019-01-26T12:14:39.379Z,3.08
2019-01-26T12:15:42.665Z,3.11
2019-01-26T12:16:45.951Z,3.30
2019-01-26T12:17:49.306Z,3.36
2019-01-26T12:18:52.593Z,3.41
2019-01-26T12:19:55.912Z,3.49
2019-01-26T12:20:59.224Z,3.48
2019-01-26T12:22:02.518Z,3.47
2019-01-26T12:23:05.800Z,3.48
2019-01-26T12:24:09.098Z,3.56
2019-01-26T12:25:12.426Z,3.57
2019-01-26T12:26:15.712Z,3.67
2019-01-26T12:27:19.006Z,3.64
2019-01-26T12:28:22.295Z,3.65
2019-01-26T12:29:25.659Z,3.58
2019-01-26T12:30:29.057Z,3.59
2019-01-26T12:31:32.344Z,3.55
2019-01-26T12:32:35.636Z,3.52
2019-01-26T12:33:38.936Z,3.51
2019-01-26T12:34:42.606Z,3.63
2019-01-26T12:35:45.911Z,3.53
2019-01-26T12:36:49.211Z,3.55
2019-01-26T12:37:52.568Z,3.52
2019-01-26T12:38:55.863Z,3.40
2019-01-26T12:39:59.169Z,3.37
2019-01-26T12:41:02.492Z,3.33
2019-01-26T12:42:07.426Z,3.39
2019-01-26T12:43:10.998Z,3.38
2019-01-26T12:44:14.301Z,3.39
2019-01-26T12:45:21.642Z,3.43
2019-01-26T12:46:25.031Z,3.55
2019-01-26T12:47:28.314Z,3.52
2019-01-26T12:48:31.633Z,3.47
2019-01-26T12:49:34.996Z,3.47
2019-01-26T12:50:38.353Z,3.47
2019-01-26T12:51:41.685Z,3.45
2019-01-26T12:52:44.989Z,3.51
2019-01-26T12:53:48.713Z,3.45
2019-01-26T12:54:52.013Z,3.44
2019-01-26T12:55:55.298Z,3.46
2019-01-26T12:56:58.706Z,3.47
2019-01-26T12:58:02.022Z,3.47
2019-01-26T12:59:05.311Z,3.60
2019-01-26T13:00:14.490Z,3.63
2019-01-26T13:01:17.777Z,3.66
2019-01-26T13:02:21.116Z,3.63
2019-01-26T13:03:24.471Z,3.60
2019-01-26T13:04:27.764Z,3.69
2019-01-26T13:05:31.044Z,3.66
2019-01-26T13:06:34.332Z,3.64
2019-01-26T13:07:37.657Z,3.69
2019-01-26T13:08:41.379Z,3.64
2019-01-26T13:09:45.637Z,3.65
2019-01-26T13:10:52.318Z,3.66
2019-01-26T13:11:55.704Z,3.69
2019-01-26T13:12:59.950Z,3.67
2019-01-26T13:14:03.234Z,3.68
2019-01-26T13:15:15.014Z,3.77
2019-01-26T13:16:13.793Z,3.77
2019-01-26T13:17:17.163Z,3.74
2019-01-26T13:18:20.567Z,3.63
2019-01-26T13:19:23.847Z,3.60
2019-01-26T13:20:27.137Z,3.53
2019-01-26T13:21:30.430Z,3.42
2019-01-26T13:22:33.799Z,3.40
2019-01-26T13:23:37.199Z,3.43
2019-01-26T13:24:40.487Z,3.43
2019-01-26T13:25:43.800Z,3.40
2019-01-26T13:26:47.104Z,3.40
2019-01-26T13:27:50.404Z,3.37
2019-01-26T13:28:55.445Z,3.38
2019-01-26T13:30:00.377Z,3.38
2019-01-26T13:31:03.662Z,3.40
2019-01-26T13:32:07.007Z,3.39
2019-01-26T13:33:10.331Z,3.35
2019-01-26T13:34:13.625Z,3.37
2019-01-26T13:35:16.914Z,3.38
2019-01-26T13:36:21.919Z,3.46
2019-01-26T13:37:25.203Z,3.52
2019-01-26T13:38:28.679Z,3.54
2019-01-26T13:39:32.048Z,3.50
2019-01-26T13:40:36.594Z,3.51
2019-01-26T13:41:39.950Z,3.35
2019-01-26T13:42:43.246Z,3.36
2019-01-26T13:43:46.568Z,3.41
2019-01-26T13:44:49.866Z,3.40
2019-01-26T13:45:53.265Z,3.38
2019-01-26T13:46:56.577Z,3.33
2019-01-26T13:47:59.962Z,3.17
2019-01-26T13:49:04.975Z,3.18
2019-01-26T13:50:09.148Z,3.22
2019-01-26T13:51:13.041Z,3.16
2019-01-26T13:52:16.577Z,3.10
2019-01-26T13:53:20.089Z,3.07
2019-01-26T13:54:23.443Z,3.17
2019-01-26T13:55:26.801Z,3.16
2019-01-26T13:56:30.327Z,3.06
2019-01-26T13:57:34.082Z,3.02
2019-01-26T13:58:37.396Z,2.97
2019-01-26T13:59:40.713Z,2.99
2019-01-26T14:00:44.021Z,3.12
2019-01-26T14:01:49.010Z,3.04
2019-01-26T14:02:52.396Z,3.00
2019-01-26T14:03:55.762Z,3.02
2019-01-26T14:04:59.149Z,3.08
2019-01-26T14:06:02.780Z,3.05
2019-01-26T14:07:07.349Z,3.08
2019-01-26T14:08:10.846Z,3.02
2019-01-26T14:09:14.207Z,2.91
2019-01-26T14:10:20.441Z,2.97